createdAt,value
2019-04-03T00:01:10.550Z,22.50
2019-04-03T00:03:43.992Z,19.40
2019-04-03T00:06:17.315Z,19.67
2019-04-03T00:08:52.912Z,22.52
2019-04-03T00:11:26.343Z,20.73
2019-04-03T00:14:16.035Z,19.27
2019-04-03T00:16:49.400Z,20.07
2019-04-03T00:19:24.081Z,21.37
2019-04-03T00:21:57.505Z,21.20
2019-04-03T00:27:26.899Z,20.83
2019-04-03T00:30:00.449Z,19.30
2019-04-03T00:32:33.927Z,19.60
2019-04-03T00:35:15.549Z,23.37
2019-04-03T00:37:48.923Z,21.57
2019-04-03T00:40:24.723Z,22.90
2019-04-03T00:42:58.290Z,24.27
2019-04-03T00:45:31.671Z,19.93
2019-04-03T00:48:05.295Z,23.27
2019-04-03T00:50:57.549Z,21.13
2019-04-03T00:53:31.012Z,25.67
2019-04-03T00:56:04.371Z,24.00
2019-04-03T00:58:43.127Z,30.37
2019-04-03T01:01:16.470Z,28.23
2019-04-03T01:03:49.902Z,26.47
2019-04-03T01:06:23.255Z,22.03
2019-04-03T01:08:59.016Z,23.77
2019-04-03T01:11:31.653Z,27.03
2019-04-03T01:14:05.232Z,25.53
2019-04-03T01:16:38.591Z,23.47
2019-04-03T01:19:11.994Z,24.70
2019-04-03T01:21:45.329Z,29.83
2019-04-03T01:24:18.828Z,25.90
2019-04-03T01:26:52.193Z,27.97
2019-04-03T01:29:25.634Z,31.77
2019-04-03T01:31:59.000Z,26.87
2019-04-03T01:34:33.882Z,27.67
2019-04-03T01:37:11.297Z,26.47
2019-04-03T01:39:45.870Z,30.00
2019-04-03T01:42:21.505Z,31.60
2019-04-03T01:44:55.473Z,22.63
2019-04-03T01:47:29.441Z,27.17
2019-04-03T01:50:02.892Z,25.93
2019-04-03T01:52:36.253Z,26.70
2019-04-03T01:55:09.674Z,32.93
2019-04-03T01:57:46.054Z,40.23
2019-04-03T02:00:19.756Z,31.03
2019-04-03T02:02:53.140Z,28.90
2019-04-03T02:05:27.199Z,22.53
2019-04-03T02:08:02.074Z,27.40
2019-04-03T02:10:51.091Z,31.03
2019-04-03T02:16:36.033Z,32.37
2019-04-03T02:19:09.389Z,29.33
2019-04-03T02:21:42.752Z,24.53
2019-04-03T02:24:16.112Z,27.07
2019-04-03T02:26:49.572Z,35.07
2019-04-03T02:29:22.973Z,25.53
2019-04-03T02:31:56.341Z,26.57
2019-04-03T02:34:33.969Z,29.27
2019-04-03T02:37:06.015Z,39.57
2019-04-03T02:39:40.416Z,29.63
2019-04-03T02:42:52.621Z,31.63
2019-04-03T02:45:26.153Z,35.53
2019-04-03T02:47:59.459Z,26.87
2019-04-03T02:50:32.851Z,28.53
2019-04-03T02:53:07.181Z,34.47
2019-04-03T02:55:41.110Z,33.80
2019-04-03T02:58:14.494Z,29.20
2019-04-03T03:00:48.389Z,27.93
2019-04-03T03:03:24.914Z,24.07
2019-04-03T03:06:00.726Z,25.70
2019-04-03T03:08:51.971Z,26.73
2019-04-03T03:11:27.641Z,26.70
2019-04-03T03:14:06.395Z,24.97
2019-04-03T03:16:38.973Z,27.47
2019-04-03T03:19:22.948Z,25.83
2019-04-03T03:22:01.929Z,24.70
2019-04-03T03:24:36.893Z,27.23
2019-04-03T03:27:11.460Z,27.80
2019-04-03T03:30:00.442Z,26.53
2019-04-03T03:32:36.260Z,30.17
2019-04-03T03:35:15.537Z,21.83
2019-04-03T03:37:45.222Z,24.97
2019-04-03T03:40:18.732Z,26.47
2019-04-03T03:42:52.769Z,21.70
2019-04-03T03:45:28.687Z,24.70
2019-04-03T03:48:08.573Z,31.23
2019-04-03T03:50:40.255Z,26.60
2019-04-03T03:53:13.995Z,28.90
2019-04-03T03:55:48.715Z,29.00
2019-04-03T03:58:24.932Z,24.00
2019-04-03T04:01:00.391Z,22.97
2019-04-03T04:03:40.346Z,21.73
2019-04-03T04:06:11.455Z,25.30
2019-04-03T04:08:48.043Z,26.17
2019-04-03T04:11:21.643Z,25.33
2019-04-03T04:13:56.288Z,26.33
2019-04-03T04:16:29.965Z,24.37
2019-04-03T04:19:03.513Z,23.97
2019-04-03T04:21:37.458Z,25.90
2019-04-03T04:24:10.851Z,31.10
2019-04-03T04:26:44.803Z,26.43
2019-04-03T04:29:19.075Z,22.50
2019-04-03T04:31:52.520Z,38.03
2019-04-03T04:34:25.920Z,27.20
2019-04-03T04:37:03.075Z,51.23
2019-04-03T04:39:36.504Z,30.13
2019-04-03T04:42:10.097Z,35.40
2019-04-03T04:44:43.551Z,37.33
2019-04-03T04:50:01.710Z,33.63
2019-04-03T04:52:35.147Z,32.53
2019-04-03T04:55:08.534Z,26.67
2019-04-03T04:57:43.220Z,44.63
2019-04-03T05:00:16.573Z,29.90
2019-04-03T05:02:51.161Z,59.73
2019-04-03T05:05:26.791Z,48.77
2019-04-03T05:08:01.867Z,35.47
2019-04-03T05:10:36.874Z,30.60
2019-04-03T05:13:10.024Z,29.57
2019-04-03T05:15:43.808Z,23.70
2019-04-03T05:18:17.405Z,37.50
2019-04-03T05:20:51.410Z,34.30
2019-04-03T05:23:25.669Z,37.20
2019-04-03T05:26:01.879Z,63.50
2019-04-03T05:28:34.777Z,38.30
2019-04-03T05:31:08.894Z,56.73
2019-04-03T05:33:42.465Z,32.33
2019-04-03T05:36:17.663Z,27.03
2019-04-03T05:38:53.469Z,57.33
2019-04-03T05:41:28.368Z,28.27
2019-04-03T05:44:02.384Z,35.90
2019-04-03T05:46:37.641Z,37.33
2019-04-03T05:49:12.441Z,71.53
2019-04-03T05:51:45.843Z,40.27
2019-04-03T05:54:19.293Z,42.30
2019-04-03T05:56:52.961Z,43.60
2019-04-03T05:59:26.584Z,32.27
2019-04-03T06:02:13.289Z,37.03
2019-04-03T06:04:36.261Z,28.63
2019-04-03T06:07:09.669Z,28.33
2019-04-03T06:09:43.149Z,29.83
2019-04-03T06:12:18.751Z,33.27
2019-04-03T06:14:52.043Z,39.37
2019-04-03T06:17:25.622Z,27.90
2019-04-03T06:19:59.017Z,36.70
2019-04-03T06:22:32.445Z,38.30
2019-04-03T06:25:10.388Z,24.20
2019-04-03T06:27:46.298Z,30.13
2019-04-03T06:30:19.920Z,27.57
2019-04-03T06:32:55.032Z,23.12
2019-04-03T06:35:28.350Z,24.00
2019-04-03T06:38:02.810Z,23.63
2019-04-03T06:40:37.379Z,23.30
2019-04-03T06:43:10.802Z,29.10
2019-04-03T06:45:44.449Z,22.00
2019-04-03T06:48:17.963Z,22.43
2019-04-03T06:50:51.363Z,24.40
2019-04-03T06:53:27.651Z,20.10
2019-04-03T06:56:00.859Z,21.33
2019-04-03T06:58:38.676Z,22.07
2019-04-03T07:01:09.629Z,20.52
2019-04-03T07:03:44.281Z,18.77
2019-04-03T07:06:18.025Z,21.73
2019-04-03T07:08:52.718Z,21.12
2019-04-03T07:11:26.114Z,21.75
2019-04-03T07:13:59.514Z,17.07
2019-04-03T07:16:33.212Z,21.95
2019-04-03T07:19:08.425Z,19.42
2019-04-03T07:21:42.179Z,21.70
2019-04-03T07:24:15.711Z,19.67
2019-04-03T07:26:49.256Z,21.97
2019-04-03T07:29:25.095Z,19.80
2019-04-03T07:32:14.069Z,25.88
2019-04-03T07:34:47.652Z,23.87
2019-04-03T07:37:20.972Z,20.37
2019-04-03T07:39:54.908Z,18.77
2019-04-03T07:42:28.391Z,17.73
2019-04-03T07:45:03.034Z,17.92
2019-04-03T07:47:36.675Z,16.17
2019-04-03T07:50:11.658Z,19.62
2019-04-03T07:52:48.353Z,18.57
2019-04-03T07:55:22.159Z,20.15
2019-04-03T07:57:57.764Z,22.75
2019-04-03T08:00:31.502Z,21.42
2019-04-03T08:03:04.973Z,19.92
2019-04-03T08:05:46.030Z,19.85
2019-04-03T08:08:19.414Z,20.55
2019-04-03T08:10:52.937Z,23.30
2019-04-03T08:13:26.310Z,19.00
2019-04-03T08:15:59.755Z,18.23
2019-04-03T08:18:33.441Z,20.27
2019-04-03T08:21:07.128Z,19.92
2019-04-03T08:23:40.624Z,21.30
2019-04-03T08:26:14.013Z,17.50
2019-04-03T08:28:47.505Z,22.70
2019-04-03T08:31:21.028Z,19.12
2019-04-03T08:33:54.486Z,21.48
2019-04-03T08:36:28.164Z,24.12
2019-04-03T08:39:01.537Z,19.87
2019-04-03T08:41:37.907Z,19.02
2019-04-03T08:44:11.492Z,21.50
2019-04-03T08:46:44.899Z,18.75
2019-04-03T08:49:18.379Z,20.45
2019-04-03T08:51:51.770Z,19.42
2019-04-03T08:54:25.403Z,21.33
2019-04-03T08:56:58.958Z,20.00
2019-04-03T08:59:32.810Z,24.45
2019-04-03T09:02:07.871Z,19.80
2019-04-03T09:04:42.270Z,18.55
2019-04-03T09:07:15.672Z,25.65
2019-04-03T09:09:49.155Z,23.77
2019-04-03T09:12:22.540Z,20.32
2019-04-03T09:14:56.996Z,21.12
2019-04-03T09:17:33.449Z,23.38
2019-04-03T09:20:07.724Z,22.70
2019-04-03T09:22:41.176Z,22.00
2019-04-03T09:25:15.358Z,19.87
2019-04-03T09:27:48.847Z,21.60
2019-04-03T09:30:22.818Z,22.73
2019-04-03T09:32:59.372Z,18.48
2019-04-03T09:35:32.791Z,26.00
2019-04-03T09:38:08.854Z,21.20
2019-04-03T09:40:41.419Z,21.35
2019-04-03T09:43:14.720Z,23.30
2019-04-03T09:45:49.261Z,18.98
2019-04-03T09:48:22.936Z,20.85
2019-04-03T09:50:56.477Z,24.82
2019-04-03T09:53:29.812Z,39.73
2019-04-03T09:56:07.318Z,22.27
2019-04-03T09:58:39.202Z,21.45
2019-04-03T10:01:15.681Z,18.85
2019-04-03T10:03:47.597Z,20.45
2019-04-03T10:06:21.086Z,22.13
2019-04-03T10:08:54.638Z,21.15
2019-04-03T10:11:29.118Z,18.92
2019-04-03T10:14:02.483Z,22.50
2019-04-03T10:16:35.984Z,19.45
2019-04-03T10:19:12.434Z,27.65
2019-04-03T10:21:44.815Z,20.65
2019-04-03T10:24:18.199Z,20.88
2019-04-03T10:26:51.663Z,21.97
2019-04-03T10:29:25.209Z,18.65
2019-04-03T10:31:58.635Z,19.73
2019-04-03T10:34:34.829Z,17.67
2019-04-03T10:37:07.440Z,19.82
2019-04-03T10:39:43.823Z,21.93
2019-04-03T10:42:16.030Z,21.35
2019-04-03T10:44:49.530Z,22.73
2019-04-03T10:47:27.203Z,21.90
2019-04-03T10:49:58.988Z,21.27
2019-04-03T10:52:33.852Z,33.78
2019-04-03T10:55:09.274Z,22.13
2019-04-03T10:57:42.901Z,21.42
2019-04-03T11:00:19.854Z,19.42
2019-04-03T11:02:53.250Z,18.73
2019-04-03T11:05:26.630Z,27.48
2019-04-03T11:08:00.327Z,21.07
2019-04-03T11:10:34.216Z,23.07
2019-04-03T11:13:07.927Z,18.98
2019-04-03T11:15:43.818Z,25.43
2019-04-03T11:18:16.420Z,20.10
2019-04-03T11:20:49.926Z,22.87
2019-04-03T11:23:36.602Z,24.40
2019-04-03T11:25:58.380Z,21.15
2019-04-03T11:28:32.903Z,28.02
2019-04-03T11:31:06.339Z,17.65
2019-04-03T11:33:39.971Z,20.88
2019-04-03T11:36:13.339Z,23.22
2019-04-03T11:38:46.768Z,27.58
2019-04-03T11:41:22.967Z,24.87
2019-04-03T11:43:55.239Z,23.95
2019-04-03T11:46:28.608Z,36.42
2019-04-03T11:49:03.351Z,33.20
2019-04-03T11:51:36.768Z,42.50
2019-04-03T11:54:10.180Z,20.25
2019-04-03T11:56:45.231Z,19.77
2019-04-03T11:59:18.674Z,22.40
2019-04-03T12:01:53.281Z,22.82
2019-04-03T12:04:26.966Z,26.55
2019-04-03T12:07:00.714Z,27.30
2019-04-03T12:09:34.052Z,20.10
2019-04-03T12:12:10.189Z,22.60
2019-04-03T12:14:42.630Z,24.65
2019-04-03T12:17:17.801Z,23.18
2019-04-03T12:19:51.154Z,23.35
2019-04-03T12:22:25.357Z,20.23
2019-04-03T12:24:58.770Z,21.70
2019-04-03T12:27:35.135Z,18.98
2019-04-03T12:30:10.980Z,20.05
2019-04-03T12:32:48.732Z,18.15
2019-04-03T12:35:19.627Z,19.50
2019-04-03T12:37:53.384Z,20.10
2019-04-03T12:40:27.014Z,26.02
2019-04-03T12:43:01.443Z,21.20
2019-04-03T12:45:34.903Z,21.93
2019-04-03T12:48:08.297Z,18.80
2019-04-03T12:50:42.548Z,18.82
2019-04-03T12:53:17.351Z,20.12
2019-04-03T12:55:50.729Z,22.17
2019-04-03T12:58:24.140Z,18.42
2019-04-03T13:00:57.592Z,22.20
2019-04-03T13:03:31.075Z,23.65
2019-04-03T13:06:04.929Z,19.17
2019-04-03T13:08:38.544Z,21.00
2019-04-03T13:11:12.113Z,18.62
2019-04-03T13:13:45.948Z,16.25
2019-04-03T13:16:21.447Z,24.80
2019-04-03T13:18:54.588Z,29.02
2019-04-03T13:21:28.381Z,29.75
2019-04-03T13:24:01.994Z,31.15
2019-04-03T13:26:37.071Z,23.02
2019-04-03T13:29:10.674Z,21.75
2019-04-03T13:31:46.730Z,30.02
2019-04-03T13:34:19.140Z,26.42
2019-04-03T13:36:52.497Z,18.77
2019-04-03T13:39:25.942Z,25.65
2019-04-03T13:41:59.460Z,22.27
2019-04-03T13:44:33.087Z,20.12
2019-04-03T13:47:08.216Z,25.35
2019-04-03T13:49:42.695Z,23.62
2019-04-03T13:52:16.860Z,21.82
2019-04-03T13:54:50.300Z,24.05
2019-04-03T13:57:23.746Z,17.00
2019-04-03T14:00:01.000Z,25.48
2019-04-03T14:02:32.238Z,23.38
2019-04-03T14:05:08.841Z,22.73
2019-04-03T14:07:42.654Z,25.45
2019-04-03T14:10:16.502Z,21.42
2019-04-03T14:12:49.919Z,19.57
2019-04-03T14:15:23.365Z,19.70
2019-04-03T14:17:59.009Z,19.87
2019-04-03T14:20:32.127Z,24.82
2019-04-03T14:23:05.623Z,25.92
2019-04-03T14:25:39.784Z,20.40
2019-04-03T14:28:13.239Z,29.72
2019-04-03T14:30:46.957Z,29.42
2019-04-03T14:33:20.400Z,21.02
2019-04-03T14:35:55.685Z,21.12
2019-04-03T14:38:29.259Z,54.55
2019-04-03T14:41:03.076Z,24.10
2019-04-03T14:43:37.596Z,26.10
2019-04-03T14:46:11.078Z,20.12
2019-04-03T14:48:44.917Z,20.43
2019-04-03T14:51:18.275Z,24.10
2019-04-03T14:53:52.891Z,19.50
2019-04-03T14:56:27.976Z,21.40
2019-04-03T14:59:01.690Z,19.20
2019-04-03T15:01:35.360Z,19.17
2019-04-03T15:04:08.831Z,19.45
2019-04-03T15:06:42.497Z,21.95
2019-04-03T15:09:16.050Z,31.20
2019-04-03T15:11:49.414Z,23.55
2019-04-03T15:14:23.106Z,18.35
2019-04-03T15:16:57.805Z,19.75
2019-04-03T15:19:31.384Z,29.48
2019-04-03T15:22:06.555Z,21.27
2019-04-03T15:24:42.261Z,21.95
2019-04-03T15:27:15.043Z,18.67
2019-04-03T15:29:48.597Z,23.42
2019-04-03T15:32:22.160Z,20.37
2019-04-03T15:34:58.706Z,22.35
2019-04-03T15:37:30.723Z,22.17
2019-04-03T15:40:05.719Z,24.35
2019-04-03T15:42:41.245Z,23.83
2019-04-03T15:45:15.654Z,25.55
2019-04-03T15:47:49.679Z,30.25
2019-04-03T15:50:24.199Z,26.60
2019-04-03T15:52:59.194Z,21.90
2019-04-03T15:55:32.964Z,25.05
2019-04-03T15:58:06.325Z,28.55
2019-04-03T16:00:42.590Z,20.97
2019-04-03T16:03:17.569Z,28.50
2019-04-03T16:05:50.897Z,46.77
2019-04-03T16:08:26.548Z,34.38
2019-04-03T16:11:01.554Z,30.57
2019-04-03T16:13:36.506Z,22.27
2019-04-03T16:16:09.904Z,21.68
2019-04-03T16:18:43.444Z,23.80
2019-04-03T16:21:17.256Z,32.25
2019-04-03T16:23:52.164Z,24.95
2019-04-03T16:26:25.736Z,26.37
2019-04-03T16:28:59.094Z,24.87
2019-04-03T16:31:32.728Z,24.18
2019-04-03T16:34:10.664Z,30.85
2019-04-03T16:36:44.143Z,37.17
2019-04-03T16:39:17.956Z,35.63
2019-04-03T16:41:51.456Z,47.17
2019-04-03T16:44:26.887Z,31.65
2019-04-03T16:47:00.990Z,26.85
2019-04-03T16:49:36.071Z,36.40
2019-04-03T16:52:09.590Z,31.07
2019-04-03T16:54:44.448Z,30.32
2019-04-03T16:57:21.099Z,29.60
2019-04-03T16:59:53.090Z,36.28
2019-04-03T17:02:29.136Z,32.17
2019-04-03T17:05:02.153Z,48.30
2019-04-03T17:07:37.445Z,38.02
2019-04-03T17:10:11.467Z,43.00
2019-04-03T17:12:45.658Z,32.10
2019-04-03T17:15:19.943Z,47.05
2019-04-03T17:17:53.661Z,39.53
2019-04-03T17:20:28.598Z,43.08
2019-04-03T17:23:03.189Z,37.73
2019-04-03T17:25:50.086Z,30.20
2019-04-03T17:28:22.058Z,32.80
2019-04-03T17:30:55.372Z,36.95
2019-04-03T17:33:28.668Z,43.33
2019-04-03T17:36:02.096Z,46.20
2019-04-03T17:39:04.378Z,39.55
2019-04-03T17:41:30.855Z,49.77
2019-04-03T17:44:06.611Z,53.15
2019-04-03T17:46:40.285Z,41.90
2019-04-03T17:49:13.798Z,44.58
2019-04-03T17:51:47.268Z,48.15
2019-04-03T17:54:25.307Z,38.95
2019-04-03T17:56:58.705Z,40.95
2019-04-03T17:59:32.087Z,37.23
2019-04-03T18:02:05.605Z,54.10
2019-04-03T18:04:39.169Z,36.80
2019-04-03T18:07:12.615Z,39.75
2019-04-03T18:09:46.251Z,81.37
2019-04-03T18:12:21.686Z,49.05
2019-04-03T18:14:55.688Z,43.58
2019-04-03T18:17:31.709Z,57.08
2019-04-03T18:20:07.513Z,41.45
2019-04-03T18:22:40.981Z,48.33
2019-04-03T18:25:14.724Z,42.35
2019-04-03T18:27:49.418Z,58.65
2019-04-03T18:30:33.900Z,46.28
2019-04-03T18:33:07.395Z,45.70
2019-04-03T18:35:42.683Z,53.25
2019-04-03T18:38:16.142Z,55.00
2019-04-03T18:40:50.149Z,38.53
2019-04-03T18:43:23.612Z,43.68
2019-04-03T18:46:01.207Z,59.60
2019-04-03T18:48:34.614Z,49.15
2019-04-03T18:51:08.116Z,62.70
2019-04-03T18:53:41.850Z,40.90
2019-04-03T18:56:16.534Z,38.58
2019-04-03T18:58:50.075Z,39.65
2019-04-03T19:01:23.541Z,36.13
2019-04-03T19:03:56.955Z,36.35
2019-04-03T19:06:30.434Z,39.03
2019-04-03T19:09:10.088Z,34.95
2019-04-03T19:11:42.445Z,43.17
2019-04-03T19:14:26.487Z,30.52
2019-04-03T19:16:52.614Z,34.10
2019-04-03T19:19:27.203Z,31.80
2019-04-03T19:22:00.594Z,36.70
2019-04-03T19:24:35.031Z,39.20
2019-04-03T19:27:08.610Z,55.92
2019-04-03T19:29:42.034Z,39.75
2019-04-03T19:32:16.609Z,57.08
2019-04-03T19:34:51.988Z,54.00
2019-04-03T19:37:25.146Z,62.13
2019-04-03T19:40:01.240Z,40.73
2019-04-03T19:42:33.635Z,36.80
2019-04-03T19:45:12.937Z,30.05
2019-04-03T19:47:46.031Z,38.55
2019-04-03T19:50:19.938Z,40.40
2019-04-03T19:52:53.476Z,42.93
2019-04-03T19:55:27.173Z,41.40
2019-04-03T19:58:00.674Z,39.10
2019-04-03T20:00:34.945Z,36.80
2019-04-03T20:03:09.131Z,35.50
2019-04-03T20:05:43.872Z,37.55
2019-04-03T20:08:18.404Z,36.77
2019-04-03T20:10:53.009Z,40.60
2019-04-03T20:13:28.063Z,62.55
2019-04-03T20:16:01.319Z,42.60
2019-04-03T20:18:34.703Z,41.15
2019-04-03T20:21:08.117Z,33.50
2019-04-03T20:23:41.908Z,44.93
2019-04-03T20:26:16.501Z,33.25
2019-04-03T20:28:50.243Z,47.27
2019-04-03T20:31:23.631Z,37.75
2019-04-03T20:33:56.994Z,36.55
2019-04-03T20:36:30.488Z,35.20
2019-04-03T20:39:05.375Z,41.42
2019-04-03T20:41:39.074Z,30.80
2019-04-03T20:44:12.427Z,35.30
2019-04-03T20:46:45.831Z,32.50
2019-04-03T20:49:19.296Z,31.77
2019-04-03T20:51:52.695Z,34.58
2019-04-03T20:54:26.168Z,34.60
2019-04-03T20:57:02.238Z,27.80
2019-04-03T20:59:34.670Z,47.85
2019-04-03T21:02:08.882Z,32.03
2019-04-03T21:04:42.693Z,30.35
2019-04-03T21:07:16.091Z,29.18
2019-04-03T21:09:49.533Z,29.72
2019-04-03T21:12:22.976Z,38.02
2019-04-03T21:15:07.792Z,30.37
2019-04-03T21:17:32.183Z,30.02
2019-04-03T21:20:07.651Z,30.65
2019-04-03T21:22:41.082Z,32.55
2019-04-03T21:25:14.512Z,32.42
2019-04-03T21:27:47.912Z,33.63
2019-04-03T21:30:24.027Z,36.23
2019-04-03T21:32:57.996Z,31.95
2019-04-03T21:35:33.203Z,37.20
2019-04-03T21:38:10.645Z,31.10
2019-04-03T21:40:45.012Z,26.97
2019-04-03T21:43:18.818Z,29.42
2019-04-03T21:46:12.272Z,30.52
2019-04-03T21:48:45.753Z,32.80
2019-04-03T21:51:20.826Z,32.20
2019-04-03T21:54:26.768Z,29.80
2019-04-03T21:56:40.705Z,28.70
2019-04-03T21:59:14.113Z,30.92
2019-04-03T22:01:49.097Z,29.32
2019-04-03T22:10:09.308Z,28.95
2019-04-03T22:12:42.756Z,32.53
2019-04-03T22:15:16.155Z,31.02
2019-04-03T22:17:52.373Z,32.93
2019-04-03T22:20:24.641Z,31.97
2019-04-03T22:22:59.201Z,32.20
2019-04-03T22:25:32.623Z,32.45
2019-04-03T22:28:05.979Z,28.07
2019-04-03T22:30:39.391Z,29.95
2019-04-03T22:33:12.771Z,31.95
2019-04-03T22:35:46.180Z,29.02
2019-04-03T22:38:19.546Z,26.55
2019-04-03T22:40:52.941Z,29.60
2019-04-03T22:43:26.320Z,31.97
2019-04-03T22:46:17.947Z,33.88
2019-04-03T22:48:51.313Z,28.98
2019-04-03T22:51:24.802Z,34.98
2019-04-03T22:54:02.316Z,30.77
2019-04-03T22:56:47.651Z,36.45
2019-04-03T22:59:27.093Z,30.85
2019-04-03T23:02:09.572Z,25.70
2019-04-03T23:04:46.181Z,30.48
2019-04-03T23:07:20.605Z,28.32
2019-04-03T23:09:56.463Z,30.35
2019-04-03T23:12:29.021Z,33.35
2019-04-03T23:15:02.394Z,28.50
2019-04-03T23:17:36.923Z,31.05
2019-04-03T23:20:11.486Z,29.77
2019-04-03T23:22:44.880Z,27.60
2019-04-03T23:25:18.225Z,29.05
2019-04-03T23:30:42.494Z,29.25
2019-04-03T23:33:16.890Z,30.08
2019-04-03T23:35:51.273Z,30.10
2019-04-03T23:38:26.713Z,31.60
2019-04-03T23:44:02.660Z,28.38
2019-04-03T23:46:37.263Z,32.03
2019-04-03T23:49:12.110Z,33.92
2019-04-03T23:51:45.473Z,32.23
2019-04-03T23:54:18.894Z,29.32
2019-04-03T23:56:53.226Z,33.30
2019-04-03T23:59:26.607Z,26.48
